Spencerville, OH (45887)

8:45 AM EDT on July 24, 2017 (GMT -0400)
Rural Buckland | | Change Station
Active Advisory: Flood Warning Active Notice: Public Information Statement

Elev 840 ft 40.65 °N, 84.29 °W | Updated 0 second ago

Partly Cloudy
Partly Cloudy
69.6 °F
Feels Like 69.6 °F
N
4.0
Wind Variable Wind from NE

Today
High -- | Low -- °F
--% Chance of Precip.
Yesterday
High -- | Low -- °F
Precip. -- in
Pressure 29.88 in
Visibility 10.0 miles
Clouds Few 7500 ft
Dew Point 66 °F
Humidity 91%
Rainfall 0.00 in
Snow Depth Not available.
6:26 AM 9:00 PM
New Moon, 2% visible
METAR KAOH 241153Z AUTO 33007KT 10SM FEW075 20/19 A2990 RMK AO2 SLP118 70008 T02000194 10206 20189 53022 $
Pressure 29.88 in
Visibility 10.0 miles
Clouds Few 7500 ft
Dew Point 66 °F
Humidity 91%
Rainfall 0.00 in
Snow Depth Not available.
6:26 AM 9:00 PM
New Moon, 2% visible
METAR KAOH 241153Z AUTO 33007KT 10SM FEW075 20/19 A2990 RMK AO2 SLP118 70008 T02000194 10206 20189 53022 $

Get Your Daily Forecast Email!

Thanks for signing up!

Be on the lookout for a verification email in your inbox.

You'll start receiving severe weather alerts in your inbox..

×

10-Day Weather Forecast

Almanac

Astronomy

Jul. 24, 2017 Rise Set
Actual Time
Civil Twilight
Nautical Twilight
Astronomical Twilight
Moon
Length of Visible Light
Length of Day
Tomorrow will be .
, % of the Moon is Illuminated

Today's Extremes

State Highs State Lows

Community

WunderPhotos

Category 6

Welcome to Category 6. This is the collective home for Weather Underground's featured writeups by Dr. Jeff Masters (right), Bob Henson (left), Chris Burt, and other regular contributors.

Nearby

Air Quality

  Air Quality AQ Index Pollutant
Not available.

Snow Depth

Station Depth Elevation

Earthquake Activity

City Distance Mag. Time & Date
Minimum magnitude displayed is 2.5.

Coastal Water Temperatures

Place Temperature

Stations

Nearby Weather Stations

Station Location Temp. Windchill Dew Point Humidity Wind Precip. Elev Updated Type
                   

Watches & Warnings

Flood Warning
Issued: 9:46 PM EDT Jul. 23, 2017 – National Weather Service

The Flood Warning continues for
the Auglaize river near Fort Jennings
* until Tuesday morning.
* At 9 PM Sunday the stage was 13.1 feet and rising.
* Minor flooding is occurring and minor flooding is forecast.
* Flood stage is 13.0 feet.
* Forecast... the river will rise to a crest near 13.4 feet around 2
am Monday July 24 and fall below flood stage around 6 am Monday
July 24.
* At 13.0 feet... minor flooding begins in the Northwest Ohio counties
of northwest Allen, northeast Van Wert, and southwest Putnam. Farm
land nearest the Auglaize river will be affected by flood water.


Lat... Lon 4081 8440 4101 8426 4100 8422 4092 8423
      4081 8433